Time;durP1;ratioP1;P1;durP2;ratioP2;P2;SDS_P1;SDS_P2;PMS_P1;PMS_P2;Temp;Humidity;BMP_temperature;BMP_pressure;BME280_temperature;BME280_humidity;BME280_pressure;Samples;Min_cycle;Max_cycle;Signal;HPM_P1;HPM_P2
2020/12/15 00:00:07;;;;;;;5.38;2.67;;;;;;;12.12;81.88;100141.84;5054587;28;20044;-63
2020/12/15 00:02:34;;;;;;;9.32;3.70;;;;;;;12.00;82.32;100134.31;5054043;28;20059;-60
2020/12/15 00:05:03;;;;;;;9.18;3.22;;;;;;;12.02;82.85;100129.25;5036876;28;20484;-65
2020/12/15 00:07:30;;;;;;;8.80;3.70;;;;;;;12.05;82.78;100128.56;5055021;28;20484;-61
2020/12/15 00:09:57;;;;;;;8.80;4.20;;;;;;;11.99;82.97;100138.22;5054305;28;20069;-62
2020/12/15 00:12:25;;;;;;;11.38;4.28;;;;;;;11.91;83.61;100135.50;5054393;28;20060;-61
2020/12/15 00:14:56;;;;;;;7.43;4.00;;;;;;;11.91;83.65;100136.31;5054227;28;20060;-61
2020/12/15 00:17:23;;;;;;;12.40;4.10;;;;;;;12.05;83.11;100136.03;5054025;28;20053;-61
2020/12/15 00:19:53;;;;;;;10.15;4.45;;;;;;;11.98;83.24;100147.63;5054164;28;20044;-61
2020/12/15 00:22:20;;;;;;;11.02;4.53;;;;;;;11.77;84.63;100144.06;5054484;28;20049;-60
2020/12/15 00:24:47;;;;;;;10.48;4.78;;;;;;;11.95;84.44;100144.72;5037325;28;20049;-61
2020/12/15 00:27:14;;;;;;;8.45;4.78;;;;;;;12.01;83.83;100129.59;5052857;28;20404;-63
2020/12/15 00:30:01;;;;;;;8.75;4.75;;;;;;;11.82;84.77;100130.06;5061954;28;20056;-63
2020/12/15 00:32:35;;;;;;;10.38;5.40;;;;;;;11.90;84.49;100128.38;5054134;28;20091;-62
2020/12/15 00:35:02;;;;;;;13.30;5.53;;;;;;;11.91;84.66;100128.03;5054403;28;20053;-62
2020/12/15 00:37:34;;;;;;;10.15;6.00;;;;;;;11.93;84.92;100111.13;5054771;28;20375;-61
2020/12/15 00:40:01;;;;;;;12.80;5.40;;;;;;;11.78;85.53;100125.56;5054485;28;20068;-62
2020/12/15 00:42:28;;;;;;;13.70;6.63;;;;;;;11.84;85.46;100125.00;5053459;28;20052;-62
2020/12/15 00:45:05;;;;;;;11.65;6.35;;;;;;;11.61;86.17;100118.16;5054656;28;20041;-61
2020/12/15 00:47:39;;;;;;;11.77;5.88;;;;;;;11.56;86.59;100117.56;5069421;28;20053;-62
2020/12/15 00:50:12;;;;;;;11.40;6.90;;;;;;;11.75;86.29;100121.50;5037697;28;20404;-64
2020/12/15 00:52:40;;;;;;;10.68;5.82;;;;;;;11.80;86.12;100110.25;5037761;28;20396;-61
2020/12/15 00:55:11;;;;;;;11.30;6.68;;;;;;;11.65;86.11;100101.78;5037330;28;20045;-65
2020/12/15 00:57:42;;;;;;;11.93;6.78;;;;;;;11.60;86.68;100088.16;5047616;28;20045;-63
2020/12/15 01:00:10;;;;;;;9.80;5.55;;;;;;;11.73;86.44;100070.56;5036452;28;20045;-62
2020/12/15 01:02:39;;;;;;;11.65;6.05;;;;;;;11.64;86.97;100078.91;5035671;28;20403;-62
2020/12/15 01:05:11;;;;;;;11.00;6.00;;;;;;;11.76;86.02;100098.31;5037241;28;20072;-64
2020/12/15 01:07:40;;;;;;;;;;;;;;;11.75;86.48;100120.72;5070470;28;20044;-62
2020/12/15 01:10:08;;;;;;;9.20;5.75;;;;;;;11.77;85.96;100149.56;5054374;28;19921;-63
2020/12/15 01:12:41;;;;;;;8.50;5.47;;;;;;;11.52;87.46;100163.50;5037417;28;20052;-64
2020/12/15 01:15:09;;;;;;;9.43;5.95;;;;;;;11.30;88.67;100170.09;5036347;28;20045;-67
2020/12/15 01:17:36;;;;;;;11.55;6.03;;;;;;;11.51;88.53;100165.44;5035964;28;20052;-62
2020/12/15 01:20:05;;;;;;;9.95;5.78;;;;;;;11.68;87.99;100170.88;5035029;28;20048;-63
2020/12/15 01:22:38;;;;;;;14.48;5.80;;;;;;;11.44;89.13;100164.38;5052621;28;20053;-65
2020/12/15 01:25:11;;;;;;;13.73;7.95;;;;;;;11.86;87.83;100161.34;5035987;28;20060;-63
2020/12/15 01:27:47;;;;;;;18.17;12.73;;;;;;;12.09;86.72;100159.09;5034455;28;20049;-63
2020/12/15 01:30:17;;;;;;;;;;;;;;;12.06;85.95;100168.84;5053434;28;20060;-63
2020/12/15 01:33:02;;;;;;;12.85;5.88;;;;;;;12.39;85.05;100149.56;5052938;28;19925;-62
2020/12/15 01:35:49;;;;;;;7.03;4.30;;;;;;;12.00;85.95;100156.38;5052214;28;20053;-63
2020/12/15 01:38:25;;;;;;;8.30;3.90;;;;;;;11.87;86.66;100160.19;5034866;28;20056;-63
2020/12/15 01:40:52;;;;;;;7.80;4.13;;;;;;;11.94;86.75;100154.19;5035026;28;20148;-61
2020/12/15 01:43:20;;;;;;;7.57;4.00;;;;;;;11.95;87.03;100164.06;5034798;28;20404;-63
2020/12/15 01:45:48;;;;;;;9.07;4.25;;;;;;;11.88;87.23;100159.06;5052624;28;20045;-63
2020/12/15 01:48:14;;;;;;;6.72;4.25;;;;;;;11.87;86.78;100160.19;5035792;28;20056;-63
2020/12/15 01:50:53;;;;;;;8.38;4.30;;;;;;;11.99;86.29;100173.28;5035097;28;20037;-64
2020/12/15 01:53:21;;;;;;;7.70;4.22;;;;;;;11.89;86.82;100170.94;5018656;28;20404;-67
2020/12/15 01:55:50;;;;;;;6.60;4.10;;;;;;;12.01;86.76;100177.31;5035116;28;20392;-63
2020/12/15 01:58:19;;;;;;;10.43;4.68;;;;;;;12.41;85.28;100169.38;5052263;28;20057;-69
2020/12/15 02:00:56;;;;;;;8.32;4.00;;;;;;;12.46;85.00;100175.47;5034303;28;20049;-67
2020/12/15 02:03:23;;;;;;;8.80;4.68;;;;;;;12.37;84.81;100171.19;5034605;28;20743;-67
2020/12/15 02:06:13;;;;;;;8.77;4.45;;;;;;;12.23;85.13;100176.19;5038519;28;20041;-67
2020/12/15 02:08:56;;;;;;;6.80;3.70;;;;;;;12.17;85.67;100178.34;5050460;28;20427;-68
2020/12/15 02:11:24;;;;;;;7.80;3.72;;;;;;;12.21;85.47;100176.53;5052439;28;20404;-63
2020/12/15 02:13:52;;;;;;;7.45;3.80;;;;;;;12.14;85.28;100173.50;5033978;28;20057;-63
2020/12/15 02:16:22;;;;;;;7.00;3.65;;;;;;;11.93;86.56;100169.91;5052000;28;20120;-64
2020/12/15 02:19:00;;;;;;;4.70;2.95;;;;;;;12.07;86.16;100181.50;5035456;28;20037;-65
2020/12/15 02:21:54;;;;;;;6.43;3.50;;;;;;;12.13;85.69;100174.63;5019962;28;20048;-65
2020/12/15 02:24:29;;;;;;;7.38;3.58;;;;;;;12.01;86.12;100173.75;5019264;28;20056;-63
2020/12/15 02:27:07;;;;;;;6.07;3.30;;;;;;;11.98;86.30;100178.00;5034468;28;20045;-63
2020/12/15 02:29:39;;;;;;;5.85;3.47;;;;;;;12.01;86.15;100179.28;5052061;28;20041;-67
2020/12/15 02:32:07;;;;;;;6.50;2.90;;;;;;;12.04;86.41;100171.16;5036272;28;20476;-64
2020/12/15 02:34:56;;;;;;;6.90;3.47;;;;;;;12.17;85.59;100175.56;5038434;28;20045;-65
2020/12/15 02:37:30;;;;;;;6.30;3.20;;;;;;;12.25;84.88;100168.38;5039240;28;20395;-64
2020/12/15 02:40:07;;;;;;;5.47;3.15;;;;;;;11.83;86.51;100164.78;5038522;28;20049;-64
2020/12/15 02:43:11;;;;;;;7.15;3.50;;;;;;;11.73;87.49;100165.19;4994552;28;20050;-65
2020/12/15 02:45:45;;;;;;;5.22;2.85;;;;;;;11.93;86.70;100158.06;4994375;28;20061;-66
2020/12/15 02:48:17;;;;;;;6.20;3.17;;;;;;;11.98;86.59;100160.63;4977558;28;20050;-63
2020/12/15 02:50:44;;;;;;;5.00;2.78;;;;;;;11.94;86.75;100162.44;4993623;28;20046;-63
2020/12/15 02:53:21;;;;;;;5.85;3.28;;;;;;;12.00;86.61;100153.63;4974089;28;20059;-64
2020/12/15 02:59:57;;;;;;;5.60;3.10;;;;;;;12.17;85.83;100156.25;4953595;28;20290;-62
2020/12/15 03:02:29;;;;;;;6.43;3.60;;;;;;;12.13;86.02;100162.78;4957931;28;20434;-67
2020/12/15 03:05:00;;;;;;;6.10;3.00;;;;;;;12.09;85.50;100157.13;4959073;28;20074;-67
2020/12/15 03:07:27;;;;;;;5.60;3.38;;;;;;;11.96;86.55;100160.16;4942429;28;20051;-62
2020/12/15 03:09:59;;;;;;;5.38;3.22;;;;;;;11.77;87.35;100168.88;4959635;28;20050;-61
2020/12/15 03:12:35;;;;;;;6.00;3.72;;;;;;;11.93;87.20;100175.44;4958070;28;20457;-62
2020/12/15 03:15:02;;;;;;;6.60;3.63;;;;;;;12.09;86.46;100181.16;4958212;28;20129;-64
2020/12/15 03:17:30;;;;;;;7.40;3.83;;;;;;;12.15;86.15;100183.38;4993176;28;20531;-64
2020/12/15 03:19:58;;;;;;;6.72;3.42;;;;;;;12.23;86.03;100178.94;5002177;28;20057;-63
2020/12/15 03:22:26;;;;;;;9.02;3.97;;;;;;;11.99;86.16;100187.09;5017926;28;20045;-63
2020/12/15 03:24:58;;;;;;;8.73;4.75;;;;;;;12.06;86.68;100190.13;5016936;28;20053;-63
2020/12/15 03:27:31;;;;;;;7.05;4.43;;;;;;;12.04;86.27;100190.47;5017176;28;20057;-65
2020/12/15 03:29:59;;;;;;;6.88;3.92;;;;;;;11.91;86.94;100188.75;5017287;28;20050;-65
2020/12/15 03:32:26;;;;;;;8.18;4.28;;;;;;;11.98;87.16;100191.78;5017792;28;20056;-65
2020/12/15 03:34:54;;;;;;;6.07;3.85;;;;;;;12.21;86.27;100181.22;5017437;28;20049;-64
2020/12/15 03:37:22;;;;;;;10.85;5.53;;;;;;;11.98;86.74;100178.00;5017619;28;20049;-66
2020/12/15 03:39:52;;;;;;;8.70;5.00;;;;;;;12.01;87.05;100177.31;5016964;28;20061;-63
2020/12/15 03:42:57;;;;;;;8.05;4.63;;;;;;;12.16;86.61;100167.63;5031685;28;20104;-63
2020/12/15 03:45:32;;;;;;;7.70;4.43;;;;;;;12.13;86.46;100174.63;5016870;28;20061;-66
2020/12/15 03:48:00;;;;;;;8.43;4.63;;;;;;;12.05;86.33;100169.16;5017222;28;20068;-62
2020/12/15 03:50:30;;;;;;;7.93;4.53;;;;;;;11.99;87.20;100165.00;5000388;28;20389;-62
2020/12/15 03:52:57;;;;;;;7.15;4.45;;;;;;;12.23;86.11;100163.19;4999900;28;20061;-63
2020/12/15 03:55:31;;;;;;;8.45;4.75;;;;;;;12.03;86.12;100150.19;5016196;28;20050;-63
2020/12/15 03:58:05;;;;;;;6.90;4.53;;;;;;;12.18;86.40;100146.84;5016021;28;20135;-62
2020/12/15 04:00:52;;;;;;;8.27;4.72;;;;;;;12.25;85.65;100149.84;5018796;28;20049;-63
2020/12/15 04:03:23;;;;;;;8.57;5.10;;;;;;;12.43;85.42;100161.53;5034246;28;20053;-62
2020/12/15 04:05:58;;;;;;;7.07;4.75;;;;;;;12.44;85.19;100160.41;5016796;28;20393;-66
2020/12/15 04:08:29;;;;;;;7.03;4.40;;;;;;;12.65;83.46;100161.19;5034035;28;20054;-63
2020/12/15 04:15:31;;;;;;;9.00;4.80;;;;;;;12.12;85.60;100181.28;5016551;28;20292;-66
2020/12/15 04:18:02;;;;;;;9.18;5.07;;;;;;;12.03;86.02;100175.03;5016384;28;20056;-67
2020/12/15 04:20:29;;;;;;;11.10;5.40;;;;;;;11.95;85.94;100170.41;5016333;28;20045;-66
2020/12/15 04:22:57;;;;;;;8.43;5.45;;;;;;;11.90;87.09;100165.06;5016196;28;20045;-65
2020/12/15 04:25:29;;;;;;;7.97;5.45;;;;;;;11.90;87.22;100165.06;5016187;28;20420;-67
2020/12/15 04:27:57;;;;;;;9.02;4.88;;;;;;;11.94;87.17;100174.28;5015536;28;20485;-65
2020/12/15 04:30:24;;;;;;;10.05;5.28;;;;;;;12.13;86.63;100180.13;5016306;28;20056;-66
2020/12/15 04:32:51;;;;;;;9.50;5.45;;;;;;;12.08;86.39;100182.31;5016343;28;20060;-66
2020/12/15 04:35:27;;;;;;;8.13;5.25;;;;;;;11.96;86.85;100185.00;5016524;28;20053;-66
2020/12/15 04:37:57;;;;;;;10.88;6.05;;;;;;;12.10;86.36;100188.31;5015917;28;20061;-64
2020/12/15 04:40:24;;;;;;;9.90;5.88;;;;;;;11.91;86.95;100191.50;5015721;28;20053;-65
2020/12/15 04:43:00;;;;;;;11.18;5.20;;;;;;;12.06;86.55;100190.94;5033706;28;20057;-64
2020/12/15 04:45:29;;;;;;;9.52;5.35;;;;;;;12.05;86.17;100183.78;5016050;28;20060;-63
2020/12/15 04:48:05;;;;;;;10.25;5.25;;;;;;;12.01;86.55;100182.84;5015806;28;20507;-66
2020/12/15 04:50:59;;;;;;;9.48;5.30;;;;;;;11.91;86.61;100196.22;5015909;28;20056;-64
2020/12/15 04:53:31;;;;;;;11.52;5.20;;;;;;;11.91;86.74;100212.78;5003531;28;20060;-67
2020/12/15 04:57:31;;;;;;;8.55;5.13;;;;;;;11.93;86.72;100216.84;4991478;28;20402;-65
2020/12/15 04:59:59;;;;;;;13.70;5.53;;;;;;;12.13;86.31;100227.06;4975305;28;20053;-67
2020/12/15 05:02:48;;;;;;;7.65;4.55;;;;;;;12.17;85.85;100229.97;4991521;28;20051;-66
2020/12/15 05:05:15;;;;;;;8.63;5.47;;;;;;;12.32;85.04;100235.72;4975379;28;20053;-65
2020/12/15 05:07:46;;;;;;;8.43;5.35;;;;;;;12.35;84.79;100234.25;4974576;28;20053;-64
2020/12/15 05:10:33;;;;;;;11.25;6.00;;;;;;;12.31;84.58;100239.63;4990602;28;20058;-63
2020/12/15 05:13:32;;;;;;;7.75;5.15;;;;;;;12.20;85.58;100238.41;4974519;28;20146;-62
2020/12/15 05:15:59;;;;;;;12.95;5.82;;;;;;;12.42;84.37;100240.84;4959375;28;20053;-62
2020/12/15 05:19:03;;;;;;;8.13;5.35;;;;;;;12.13;85.42;100232.59;4974904;28;20050;-62
2020/12/15 05:21:35;;;;;;;10.20;4.88;;;;;;;12.29;84.59;100236.38;4974835;28;20050;-61
2020/12/15 05:24:09;;;;;;;7.30;4.40;;;;;;;12.43;84.40;100234.16;4975320;28;20061;-67
2020/12/15 05:31:05;;;;;;;9.25;4.70;;;;;;;12.16;85.09;100225.59;4974568;28;20057;-68
2020/12/15 05:33:32;;;;;;;9.23;4.43;;;;;;;12.05;85.61;100221.63;5022847;28;20045;-65
2020/12/15 05:36:22;;;;;;;9.43;4.45;;;;;;;12.03;85.40;100221.16;4972749;28;20071;-64
2020/12/15 05:39:25;;;;;;;6.85;4.50;;;;;;;12.30;84.66;100215.94;4972073;28;20403;-67
2020/12/15 05:46:21;;;;;;;9.50;4.55;;;;;;;12.01;85.15;100231.72;4972304;28;20050;-64
2020/12/15 05:48:51;;;;;;;8.38;4.57;;;;;;;12.11;85.30;100239.63;4973336;28;20063;-64
2020/12/15 05:51:18;;;;;;;8.50;4.70;;;;;;;12.22;85.01;100244.41;4971232;28;20047;-63
2020/12/15 05:53:45;;;;;;;9.18;4.57;;;;;;;12.22;84.30;100247.16;4971276;28;20766;-63
2020/12/15 05:56:21;;;;;;;8.13;4.38;;;;;;;12.26;84.54;100256.41;4955852;28;20042;-64
2020/12/15 05:58:54;;;;;;;8.68;4.47;;;;;;;12.32;84.24;100248.72;4955583;28;20051;-63
2020/12/15 06:01:21;;;;;;;8.15;4.35;;;;;;;12.15;84.82;100254.38;4971054;28;20491;-62
2020/12/15 06:03:57;;;;;;;6.35;3.78;;;;;;;12.22;84.51;100258.19;4971005;28;20051;-62
2020/12/15 06:06:24;;;;;;;6.22;4.10;;;;;;;12.23;84.33;100259.03;4973574;28;20535;-63
2020/12/15 06:08:52;;;;;;;8.38;4.43;;;;;;;12.15;85.23;100252.41;4975148;28;20054;-62
2020/12/15 06:11:20;;;;;;;9.18;4.18;;;;;;;12.09;84.71;100256.53;4958670;28;20059;-63
2020/12/15 06:13:53;;;;;;;7.90;4.18;;;;;;;11.93;85.58;100249.94;5027238;28;20052;-64
2020/12/15 06:16:19;;;;;;;8.35;4.03;;;;;;;12.06;84.98;100248.91;5056096;28;20128;-65
2020/12/15 06:18:47;;;;;;;6.50;4.00;;;;;;;12.02;85.66;100258.19;5037336;28;20053;-62
2020/12/15 06:21:14;;;;;;;8.35;4.10;;;;;;;12.16;85.08;100264.25;5021779;28;20049;-63
2020/12/15 06:23:43;;;;;;;8.30;4.28;;;;;;;12.31;84.29;100255.38;5038739;28;20049;-66
2020/12/15 06:26:10;;;;;;;7.47;3.92;;;;;;;12.19;84.46;100269.09;5037884;28;20045;-64
2020/12/15 06:28:37;;;;;;;7.75;4.55;;;;;;;11.98;85.39;100268.25;5055466;28;20052;-65
2020/12/15 06:31:04;;;;;;;8.18;4.22;;;;;;;12.16;85.15;100269.78;5055604;28;20049;-65
2020/12/15 06:33:34;;;;;;;8.13;4.13;;;;;;;12.25;84.45;100271.34;5055913;28;20049;-64
2020/12/15 06:36:01;;;;;;;6.35;3.92;;;;;;;12.21;84.37;100277.88;5056281;28;20056;-63
2020/12/15 06:38:28;;;;;;;7.00;3.70;;;;;;;12.19;84.53;100275.44;5055730;28;20124;-64
2020/12/15 06:40:56;;;;;;;6.35;3.47;;;;;;;12.20;84.63;100276.25;5037787;28;20049;-63
2020/12/15 06:43:31;;;;;;;6.90;3.70;;;;;;;12.16;84.84;100278.06;5055736;28;20049;-64
2020/12/15 06:46:06;;;;;;;5.75;3.70;;;;;;;12.11;84.96;100283.78;5038268;28;20064;-63
2020/12/15 06:48:33;;;;;;;7.25;4.28;;;;;;;12.43;84.03;100283.06;5055849;28;20060;-64
2020/12/15 06:51:00;;;;;;;7.25;4.00;;;;;;;12.22;83.71;100273.97;5038046;28;20053;-64
2020/12/15 06:53:27;;;;;;;7.25;3.75;;;;;;;12.17;83.74;100279.66;5055420;28;20071;-65
2020/12/15 06:56:02;;;;;;;6.38;3.42;;;;;;;12.21;84.30;100278.69;5055540;28;20056;-66
2020/12/15 06:58:29;;;;;;;7.15;3.50;;;;;;;12.24;83.43;100288.22;5055537;28;20041;-64
2020/12/15 07:01:02;;;;;;;5.90;3.40;;;;;;;12.39;83.33;100285.72;5037593;28;20045;-65
2020/12/15 07:03:36;;;;;;;6.28;3.90;;;;;;;12.38;83.74;100283.28;5038646;28;20060;-62
2020/12/15 07:06:08;;;;;;;7.53;3.85;;;;;;;12.64;82.23;100286.66;5055033;28;20420;-67
2020/12/15 07:08:35;;;;;;;7.15;3.67;;;;;;;12.20;83.79;100293.63;5055437;28;20412;-63
2020/12/15 07:11:02;;;;;;;6.28;3.60;;;;;;;12.28;83.68;100292.78;5054728;28;20037;-64
2020/12/15 07:13:29;;;;;;;21.90;13.25;;;;;;;12.54;82.48;100284.28;5054916;28;20045;-64
2020/12/15 07:15:56;;;;;;;17.15;9.82;;;;;;;12.47;82.52;100297.84;5055267;28;20056;-65
2020/12/15 07:18:23;;;;;;;11.57;6.70;;;;;;;12.56;81.97;100297.75;5053871;28;20053;-65
2020/12/15 07:20:50;;;;;;;9.65;4.38;;;;;;;12.42;82.10;100307.13;5054744;28;20053;-62
2020/12/15 07:23:17;;;;;;;6.88;3.83;;;;;;;12.15;83.60;100312.34;5054226;28;20045;-63
2020/12/15 07:25:45;;;;;;;7.70;4.05;;;;;;;12.17;83.60;100316.38;5054722;28;20392;-64
2020/12/15 07:28:12;;;;;;;11.35;3.78;;;;;;;12.54;82.55;100316.63;5037070;28;20068;-62
2020/12/15 07:30:39;;;;;;;6.03;3.20;;;;;;;12.41;82.70;100321.28;5053814;28;20500;-63
2020/12/15 07:33:06;;;;;;;27.23;14.25;;;;;;;12.56;82.01;100309.63;5054661;28;20511;-61
2020/12/15 07:35:34;;;;;;;18.10;8.23;;;;;;;12.57;81.88;100316.75;5052605;28;20072;-62
2020/12/15 07:38:02;;;;;;;7.38;3.97;;;;;;;12.51;81.56;100317.31;5053717;28;20480;-62
2020/12/15 07:40:30;;;;;;;6.95;4.28;;;;;;;12.28;82.58;100317.63;5053854;28;20045;-65
2020/12/15 07:43:02;;;;;;;8.50;3.95;;;;;;;12.39;82.59;100321.63;5053507;28;20056;-62
2020/12/15 07:45:30;;;;;;;6.32;3.30;;;;;;;12.42;82.20;100317.38;5035809;28;20052;-64
2020/12/15 07:47:58;;;;;;;6.93;3.30;;;;;;;12.29;82.09;100322.00;5053194;28;20049;-62
2020/12/15 07:50:29;;;;;;;5.05;2.92;;;;;;;12.48;81.85;100322.34;5054472;28;20389;-63
2020/12/15 07:53:07;;;;;;;8.55;4.93;;;;;;;12.62;80.85;100326.81;5054084;28;20332;-67
2020/12/15 07:55:34;;;;;;;6.50;3.83;;;;;;;12.48;81.31;100332.63;5053684;28;20053;-65
2020/12/15 07:58:13;;;;;;;6.05;3.72;;;;;;;12.37;81.78;100343.25;5054057;28;20377;-68
2020/12/15 08:00:41;;;;;;;7.30;4.10;;;;;;;12.34;81.73;100349.41;5054300;28;20064;-66
2020/12/15 08:03:09;;;;;;;7.90;4.07;;;;;;;12.20;82.65;100348.06;5036400;28;20045;-67
2020/12/15 08:05:39;;;;;;;6.93;3.58;;;;;;;12.38;82.44;100352.31;5054405;28;20052;-63
2020/12/15 08:08:07;;;;;;;8.50;3.95;;;;;;;12.44;81.31;100354.56;5053727;28;20045;-62
2020/12/15 08:10:35;;;;;;;8.18;3.50;;;;;;;12.52;81.58;100354.84;5054187;28;20072;-64
2020/12/15 08:13:04;;;;;;;7.88;3.88;;;;;;;12.34;81.94;100356.91;5054255;28;20045;-66
2020/12/15 08:15:39;;;;;;;7.95;4.47;;;;;;;12.56;81.26;100364.88;5054121;28;20041;-64
2020/12/15 08:18:09;;;;;;;12.05;6.95;;;;;;;12.62;80.54;100369.09;5054554;28;20487;-66
2020/12/15 08:20:36;;;;;;;9.32;5.80;;;;;;;12.69;80.69;100382.38;5054195;28;20045;-66
2020/12/15 08:23:08;;;;;;;4.38;2.40;;;;;;;12.31;80.94;100380.47;5036229;28;20072;-67
2020/12/15 08:25:43;;;;;;;5.32;2.88;;;;;;;12.60;80.15;100378.84;5053811;28;20693;-66
2020/12/15 08:28:21;;;;;;;6.43;3.22;;;;;;;12.32;81.01;100376.59;5053375;28;20045;-65
2020/12/15 08:30:49;;;;;;;6.68;3.42;;;;;;;12.58;80.88;100375.59;5053507;28;20064;-64
2020/12/15 08:33:30;;;;;;;6.85;3.20;;;;;;;12.44;80.98;100375.84;5052968;28;20049;-62
2020/12/15 08:35:58;;;;;;;5.40;2.95;;;;;;;12.57;80.92;100385.03;5020159;28;20045;-63
2020/12/15 08:38:26;;;;;;;7.22;3.00;;;;;;;12.56;80.80;100384.22;5053479;28;20048;-61
2020/12/15 08:40:58;;;;;;;6.10;2.53;;;;;;;12.66;80.36;100383.84;5053412;28;20056;-62
2020/12/15 08:43:27;;;;;;;5.85;3.10;;;;;;;12.57;80.71;100393.34;5052766;28;20049;-64
2020/12/15 08:45:54;;;;;;;5.10;2.25;;;;;;;12.26;80.95;100401.94;5053103;28;20057;-64
2020/12/15 08:48:24;;;;;;;6.10;2.80;;;;;;;12.46;80.57;100399.22;5053049;28;20519;-63
2020/12/15 08:50:51;;;;;;;9.18;3.45;;;;;;;12.45;80.74;100394.03;5053401;28;20049;-65
2020/12/15 08:53:20;;;;;;;6.38;3.33;;;;;;;12.35;80.85;100395.25;5052660;28;20060;-63
2020/12/15 08:55:48;;;;;;;6.20;2.80;;;;;;;12.40;81.16;100419.09;5035307;28;20471;-64
2020/12/15 08:58:15;;;;;;;7.72;3.17;;;;;;;12.40;81.03;100416.31;5052576;28;20048;-64
2020/12/15 09:00:45;;;;;;;6.30;2.92;;;;;;;12.57;81.10;100437.53;5053072;28;20065;-64
2020/12/15 09:03:17;;;;;;;7.70;3.00;;;;;;;12.34;81.03;100446.06;5051608;28;20048;-65
2020/12/15 09:05:47;;;;;;;7.13;3.10;;;;;;;12.28;81.83;100449.38;5052285;28;20057;-63
2020/12/15 09:08:19;;;;;;;7.28;3.33;;;;;;;12.42;81.64;100447.19;5053127;28;20040;-63
2020/12/15 09:10:47;;;;;;;5.68;2.70;;;;;;;12.45;81.15;100454.81;5036170;28;20049;-65
2020/12/15 09:13:14;;;;;;;12.77;2.85;;;;;;;12.59;80.45;100441.56;5052678;28;20049;-63
2020/12/15 09:15:57;;;;;;;6.03;3.17;;;;;;;12.50;81.54;100451.06;5051980;28;20053;-62
2020/12/15 09:18:32;;;;;;;12.32;6.32;;;;;;;12.69;80.19;100454.22;5052696;28;20389;-61
2020/12/15 09:21:12;;;;;;;5.88;2.60;;;;;;;12.68;79.66;100453.41;5051229;28;20056;-63
2020/12/15 09:23:42;;;;;;;4.10;2.22;;;;;;;12.66;79.67;100457.66;5051838;28;20488;-65
2020/12/15 09:26:09;;;;;;;4.82;2.45;;;;;;;12.88;79.20;100458.16;5050929;28;20056;-65
2020/12/15 09:28:36;;;;;;;6.88;3.10;;;;;;;12.75;79.32;100455.63;5051443;28;20044;-62
2020/12/15 09:31:03;;;;;;;6.65;3.33;;;;;;;12.84;78.85;100465.50;5051686;28;20049;-64
2020/12/15 09:33:30;;;;;;;7.35;3.05;;;;;;;12.71;79.54;100466.53;5052189;28;20053;-64
2020/12/15 09:35:57;;;;;;;10.00;4.97;;;;;;;12.90;78.98;100477.97;5051749;28;20052;-66
2020/12/15 09:38:24;;;;;;;8.52;4.60;;;;;;;12.87;79.50;100478.66;5051956;28;20049;-63
2020/12/15 09:40:51;;;;;;;14.13;6.57;;;;;;;12.97;79.01;100485.75;5051513;28;20049;-64
2020/12/15 09:43:18;;;;;;;8.43;4.45;;;;;;;12.78;79.40;100500.00;5052222;28;20060;-64
2020/12/15 09:45:50;;;;;;;13.00;4.28;;;;;;;12.84;79.54;100509.72;5051387;28;20480;-68
2020/12/15 09:48:18;;;;;;;7.25;2.55;;;;;;;12.79;78.52;100518.22;5032052;28;20073;-68
2020/12/15 09:50:45;;;;;;;12.27;2.30;;;;;;;12.94;78.54;100516.81;5064555;28;20519;-64
2020/12/15 09:53:13;;;;;;;6.72;2.33;;;;;;;12.75;79.55;100517.25;5052041;28;20041;-66
2020/12/15 09:55:40;;;;;;;7.00;2.38;;;;;;;12.77;78.92;100526.03;5034836;28;20045;-65
2020/12/15 09:58:07;;;;;;;4.57;2.00;;;;;;;12.68;79.24;100524.44;5051968;28;20412;-64
2020/12/15 10:00:34;;;;;;;7.07;2.40;;;;;;;13.06;78.26;100520.50;5051672;28;20409;-64
2020/12/15 10:03:02;;;;;;;4.35;2.25;;;;;;;12.81;76.96;100528.94;5051650;28;20060;-66
2020/12/15 10:05:46;;;;;;;6.55;2.40;;;;;;;12.84;78.21;100525.50;5051786;28;20049;-64
2020/12/15 10:08:14;;;;;;;8.15;2.42;;;;;;;12.79;77.93;100529.28;5051555;28;20052;-65
2020/12/15 10:10:41;;;;;;;5.63;2.20;;;;;;;12.91;78.02;100531.31;5034199;28;20052;-69
2020/12/15 10:13:08;;;;;;;6.60;2.22;;;;;;;12.92;78.25;100536.50;5051846;28;20052;-67
2020/12/15 10:15:34;;;;;;;8.13;2.70;;;;;;;13.01;77.40;100541.97;5051042;28;20049;-64
2020/12/15 10:18:03;;;;;;;9.13;2.60;;;;;;;13.37;76.48;100536.75;5051734;28;20408;-64
2020/12/15 10:20:30;;;;;;;12.68;2.53;;;;;;;13.69;75.14;100537.97;5052077;28;20041;-69
2020/12/15 10:22:58;;;;;;;6.40;2.17;;;;;;;13.57;74.78;100545.06;5051308;28;20052;-75
2020/12/15 10:25:25;;;;;;;10.75;2.90;;;;;;;13.89;74.19;100546.28;5051105;28;20049;-64
2020/12/15 10:27:52;;;;;;;12.40;3.80;;;;;;;13.84;73.55;100540.13;5017088;28;20056;-64
2020/12/15 10:34:55;;;;;;;10.20;2.83;;;;;;;13.51;74.25;100548.38;5050528;28;20508;-62
2020/12/15 10:37:23;;;;;;;7.70;3.40;;;;;;;14.02;73.84;100552.66;5051309;28;20049;-66
2020/12/15 10:39:52;;;;;;;6.82;2.10;;;;;;;14.33;71.94;100553.81;5051666;28;20076;-67
2020/12/15 10:42:19;;;;;;;5.85;2.03;;;;;;;14.10;72.16;100552.59;5033205;28;20519;-63
2020/12/15 10:44:47;;;;;;;6.50;2.38;;;;;;;13.89;72.56;100562.06;5033216;28;20049;-68
2020/12/15 10:47:14;;;;;;;6.90;2.65;;;;;;;13.84;72.52;100563.09;5050322;28;20072;-65
2020/12/15 10:49:41;;;;;;;7.60;2.33;;;;;;;14.12;72.75;100557.78;5050950;28;20052;-64
2020/12/15 10:52:08;;;;;;;4.18;2.00;;;;;;;14.03;71.83;100557.88;5050966;28;20053;-67
2020/12/15 10:54:35;;;;;;;5.63;1.90;;;;;;;14.26;70.59;100558.31;5054729;28;20071;-63
2020/12/15 10:57:02;;;;;;;8.18;2.10;;;;;;;13.80;71.66;100561.31;5054781;28;20053;-65
2020/12/15 10:59:29;;;;;;;7.03;1.92;;;;;;;13.85;72.54;100561.13;5054314;28;20053;-65
2020/12/15 11:01:56;;;;;;;7.75;2.17;;;;;;;13.80;71.77;100555.78;5054349;28;20060;-63
2020/12/15 11:04:23;;;;;;;7.25;2.35;;;;;;;13.86;71.43;100559.97;5035145;28;20428;-65
2020/12/15 11:06:52;;;;;;;4.90;2.20;;;;;;;14.06;69.60;100564.66;5053923;28;20084;-64
2020/12/15 11:09:19;;;;;;;7.63;2.28;;;;;;;14.12;70.46;100566.09;5053528;28;20053;-65
2020/12/15 11:11:47;;;;;;;9.27;2.20;;;;;;;13.97;69.47;100561.16;5053255;28;20049;-66
2020/12/15 11:14:15;;;;;;;7.82;2.35;;;;;;;13.56;70.20;100565.56;5055132;28;20056;-63
2020/12/15 11:17:01;;;;;;;9.93;3.00;;;;;;;13.65;70.47;100559.19;5053156;28;20048;-63
2020/12/15 11:19:28;;;;;;;8.02;2.13;;;;;;;13.60;71.03;100570.44;5052418;28;20049;-64
2020/12/15 11:21:56;;;;;;;9.95;3.85;;;;;;;13.54;71.21;100573.44;5034904;28;20060;-65
2020/12/15 11:24:22;;;;;;;8.82;3.35;;;;;;;13.67;70.97;100574.28;5052160;28;20053;-64
2020/12/15 11:26:52;;;;;;;;;;;;;;;13.62;71.03;100574.50;5035492;28;20060;-66
2020/12/15 11:29:20;;;;;;;7.80;2.22;;;;;;;13.46;70.19;100579.81;5052904;28;19928;-65
2020/12/15 11:31:51;;;;;;;12.63;5.45;;;;;;;13.54;70.44;100578.97;5034694;28;20049;-70
2020/12/15 11:34:18;;;;;;;12.48;6.03;;;;;;;13.82;69.66;100578.41;5035202;28;20051;-66
2020/12/15 11:36:45;;;;;;;8.32;2.60;;;;;;;13.88;69.23;100586.16;5035144;28;20046;-63
2020/12/15 11:39:12;;;;;;;8.07;2.25;;;;;;;13.83;69.25;100586.38;5052177;28;20053;-64
2020/12/15 11:41:39;;;;;;;9.20;2.80;;;;;;;13.68;69.93;100586.19;5053081;28;20045;-64
2020/12/15 11:44:06;;;;;;;10.35;2.47;;;;;;;13.85;69.39;100580.50;5052216;28;20041;-66
2020/12/15 11:46:33;;;;;;;10.50;2.83;;;;;;;13.84;69.37;100584.44;5034312;28;20045;-66
2020/12/15 11:49:01;;;;;;;14.93;7.57;;;;;;;13.85;69.70;100586.03;5051448;28;20048;-65
2020/12/15 11:51:28;;;;;;;16.77;7.75;;;;;;;13.96;69.34;100576.19;5051699;28;20053;-64
2020/12/15 11:53:55;;;;;;;16.90;3.63;;;;;;;13.94;68.97;100579.28;5052321;28;20048;-65
2020/12/15 11:56:22;;;;;;;7.50;2.25;;;;;;;13.72;69.19;100579.63;5051675;28;20492;-64
2020/12/15 11:58:49;;;;;;;7.78;2.30;;;;;;;14.01;68.83;100581.50;5052033;28;20056;-64
2020/12/15 12:01:15;;;;;;;7.65;2.13;;;;;;;14.18;67.17;100581.34;5033229;28;20500;-65
2020/12/15 12:03:42;;;;;;;10.18;2.20;;;;;;;14.24;66.78;100588.28;5051978;28;20343;-64